Time;durP1;ratioP1;P1;durP2;ratioP2;P2;SDS_P1;SDS_P2;PMS_P1;PMS_P2;Temp;Humidity;BMP_temperature;BMP_pressure;BME280_temperature;BME280_humidity;BME280_pressure;Samples;Min_cycle;Max_cycle;Signal;HPM_P1;HPM_P2
2021/10/26 00:13:52;;;;;;;0.10;0.10;;;12.70;91.20;11.80;101707.00;;;;31255445;28;20130;-72
2021/10/26 00:28:56;;;;;;;0.25;0.25;;;12.70;91.20;11.80;101724.00;;;;31252801;28;20081;-72
2021/10/26 00:44:04;;;;;;;0.10;0.10;;;12.70;91.00;11.80;101720.00;;;;31265012;28;20045;-71
2021/10/26 00:59:12;;;;;;;0.30;0.30;;;12.70;91.40;11.80;101729.00;;;;31234218;28;20041;-71
2021/10/26 01:14:20;;;;;;;0.20;0.20;;;12.70;91.80;11.80;101731.00;;;;31252825;28;20082;-72
2021/10/26 01:29:21;;;;;;;0.20;0.20;;;12.70;91.50;11.80;101739.00;;;;31245137;28;20503;-72
2021/10/26 01:44:26;;;;;;;0.22;0.22;;;12.70;91.30;11.80;101747.00;;;;31240255;28;20507;-72
2021/10/26 01:59:35;;;;;;;0.10;0.10;;;12.70;91.60;11.80;101753.00;;;;31270141;28;20049;-72
2021/10/26 02:14:38;;;;;;;0.45;0.45;;;12.70;91.70;11.80;101741.00;;;;31254245;28;20044;-72
2021/10/26 02:29:47;;;;;;;0.20;0.20;;;12.60;91.80;11.80;101743.00;;;;31255636;28;20436;-71
2021/10/26 02:44:58;;;;;;;0.47;0.47;;;14.30;91.90;11.70;101759.00;;;;31242415;28;20041;-72
2021/10/26 03:00:10;;;;;;;0.93;0.93;;;12.60;91.50;11.70;101765.00;;;;31269980;28;20102;-71
2021/10/26 03:15:18;;;;;;;0.20;0.20;;;12.60;91.50;11.70;101762.00;;;;31213415;28;20064;-72
2021/10/26 03:30:21;;;;;;;0.20;0.20;;;12.60;91.90;11.70;101778.00;;;;31270098;28;20049;-72
2021/10/26 03:45:30;;;;;;;0.30;0.30;;;12.60;92.00;11.70;101775.00;;;;31269926;28;20037;-72
2021/10/26 04:00:36;;;;;;;0.17;0.17;;;12.50;92.60;11.60;101779.00;;;;31264565;28;20049;-71
2021/10/26 04:15:55;;;;;;;0.22;0.22;;;12.50;92.50;11.50;101787.00;;;;31259347;28;20087;-71
2021/10/26 04:31:02;;;;;;;0.30;0.30;;;12.50;92.40;11.50;101776.00;;;;31252228;28;20107;-71
2021/10/26 04:46:04;;;;;;;0.20;0.20;;;12.40;91.90;11.40;101807.00;;;;31260182;28;20047;-72
2021/10/26 05:01:07;;;;;;;0.20;0.20;;;12.30;92.60;11.40;101817.00;;;;31262330;28;20056;-72
2021/10/26 05:16:12;;;;;;;0.40;0.40;;;12.30;92.70;11.40;101812.00;;;;31248446;28;20049;-71
2021/10/26 05:31:33;;;;;;;0.10;0.10;;;12.30;92.70;11.40;101822.00;;;;31258662;28;20064;-71
2021/10/26 05:46:36;;;;;;;0.10;0.10;;;12.30;92.20;11.30;101835.00;;;;31246600;28;20569;-71
2021/10/26 06:02:03;;;;;;;0.30;0.30;;;12.20;92.70;11.30;101865.00;;;;31249666;28;20052;-72
2021/10/26 06:17:04;;;;;;;0.10;0.10;;;12.20;92.50;11.20;101871.00;;;;31253656;28;20052;-72
2021/10/26 06:32:10;;;;;;;0.52;0.52;;;12.20;93.30;11.20;101894.00;;;;31204047;28;20052;-72
2021/10/26 06:47:14;;;;;;;0.30;0.30;;;12.10;92.40;11.10;101897.00;;;;31259162;28;20145;-72
2021/10/26 07:02:54;;;;;;;0.35;0.35;;;12.20;93.20;11.10;101914.00;;;;31272398;28;20407;-71
2021/10/26 07:18:17;;;;;;;0.30;0.30;;;12.00;92.70;11.00;101931.00;;;;31273663;28;20094;-71
2021/10/26 07:33:24;;;;;;;0.30;0.30;;;11.90;92.20;11.10;101952.00;;;;31248794;28;20055;-72
2021/10/26 07:48:27;;;;;;;0.25;0.25;;;12.10;92.40;11.20;101971.00;;;;31273750;28;20059;-71
2021/10/26 08:03:33;;;;;;;1.00;1.00;;;12.10;92.20;11.20;101973.00;;;;31270381;28;20119;-71
2021/10/26 08:18:37;;;;;;;1.02;0.98;;;12.10;92.60;11.20;101972.00;;;;31265147;28;20053;-71
2021/10/26 08:34:04;;;;;;;0.45;0.45;;;12.10;92.50;11.40;101956.00;;;;31270944;28;20045;-71
2021/10/26 08:49:05;;;;;;;0.47;0.47;;;12.30;91.90;11.60;101965.00;;;;31264967;28;20535;-71
2021/10/26 09:04:34;;;;;;;4.68;1.85;;;12.50;91.40;11.70;101960.00;;;;31258518;28;20051;-71
2021/10/26 09:19:43;;;;;;;0.38;0.38;;;12.60;91.80;11.90;101950.00;;;;31253133;28;20565;-70
2021/10/26 09:35:18;;;;;;;0.20;0.20;;;12.70;91.70;12.10;101980.00;;;;31244404;28;20123;-71
2021/10/26 09:50:19;;;;;;;0.77;0.77;;;12.90;90.90;12.30;101997.00;;;;31252229;28;20713;-71
2021/10/26 10:05:24;;;;;;;0.20;0.20;;;13.10;91.10;12.30;101985.00;;;;31256155;28;20049;-71
2021/10/26 10:20:27;;;;;;;0.50;0.50;;;13.20;90.90;12.20;102004.00;;;;31251108;28;20053;-71
2021/10/26 10:35:30;;;;;;;0.20;0.20;;;13.00;91.10;12.40;101985.00;;;;31258114;28;20053;-71
2021/10/26 10:50:38;;;;;;;0.20;0.20;;;13.10;90.60;12.70;101985.00;;;;31258450;28;20400;-71
2021/10/26 11:05:42;;;;;;;2.22;0.73;;;13.50;90.60;13.10;101978.00;;;;31251497;28;20048;-71
2021/10/26 11:20:44;;;;;;;0.20;0.20;;;13.80;90.20;13.20;101974.00;;;;31250991;28;20045;-71
2021/10/26 11:35:59;;;;;;;0.45;0.45;;;14.00;90.20;13.80;101936.00;;;;31260235;28;20096;-71
2021/10/26 11:51:30;;;;;;;0.10;0.10;;;14.60;87.80;14.50;101919.00;;;;31274469;28;20053;-71
2021/10/26 12:06:36;;;;;;;0.32;0.32;;;15.00;88.20;14.80;101945.00;;;;31281335;28;20729;-72
2021/10/26 12:21:54;;;;;;;0.20;0.20;;;15.40;85.80;14.70;101934.00;;;;31266415;28;20046;-72
2021/10/26 12:37:15;;;;;;;0.10;0.10;;;15.40;83.90;14.60;101945.00;;;;31276156;28;20043;-71
2021/10/26 12:52:18;;;;;;;0.17;0.17;;;15.40;82.70;15.30;101927.00;;;;31263544;28;20106;-71
2021/10/26 13:07:26;;;;;;;0.22;0.22;;;15.90;81.00;15.00;101930.00;;;;31270519;28;20687;-71
2021/10/26 13:22:29;;;;;;;0.10;0.10;;;15.70;82.20;14.90;101913.00;;;;31264017;28;20091;-72
2021/10/26 13:37:31;;;;;;;0.10;0.10;;;15.60;81.30;14.70;101919.00;;;;31261871;28;20064;-72
2021/10/26 13:52:32;;;;;;;0.10;0.10;;;15.40;79.90;14.40;101949.00;;;;31245249;28;20060;-72
2021/10/26 14:07:36;;;;;;;0.20;0.20;;;15.20;81.80;14.60;101956.00;;;;31251466;28;20083;-72
2021/10/26 14:22:39;;;;;;;0.20;0.20;;;15.30;81.30;14.70;101954.00;;;;31255647;28;20052;-72
2021/10/26 14:53:08;;;;;;;0.10;0.10;;;15.40;80.50;14.60;101957.00;;;;31245474;28;20603;-72
2021/10/26 15:08:12;;;;;;;0.00;0.00;;;15.40;80.50;14.50;101984.00;;;;31260440;28;20530;-73
2021/10/26 15:38:55;;;;;;;0.10;0.10;;;15.00;78.10;14.10;101975.00;;;;31236414;28;20038;-73
2021/10/26 15:53:57;;;;;;;0.13;0.13;;;14.90;79.40;13.90;101989.00;;;;31276498;28;20048;-72
2021/10/26 16:09:06;;;;;;;0.10;0.10;;;14.80;80.00;13.80;102006.00;;;;31261250;28;20044;-73
2021/10/26 16:24:08;;;;;;;0.28;0.28;;;14.60;79.50;13.70;102018.00;;;;31252887;28;20034;-72
2021/10/26 16:39:28;;;;;;;0.10;0.10;;;14.60;82.70;13.60;102023.00;;;;31254796;28;20053;-72
2021/10/26 16:54:30;;;;;;;0.32;0.32;;;14.40;81.10;13.30;102040.00;;;;31265959;28;20060;-73
2021/10/26 17:09:35;;;;;;;0.20;0.20;;;14.40;82.50;13.10;102043.00;;;;31260050;28;20045;-73
2021/10/26 17:24:37;;;;;;;0.10;0.10;;;14.00;82.80;13.00;102045.00;;;;31257575;28;20491;-73
2021/10/26 17:39:40;;;;;;;0.20;0.20;;;13.90;83.60;13.00;102051.00;;;;31247247;28;20053;-73
2021/10/26 17:55:13;;;;;;;0.40;0.40;;;13.80;82.50;13.00;102067.00;;;;31261964;28;20049;-73
2021/10/26 18:10:14;;;;;;;0.10;0.10;;;13.80;83.60;12.90;102057.00;;;;31232800;28;20052;-72
2021/10/26 18:25:15;;;;;;;0.10;0.10;;;13.80;83.70;12.90;102064.00;;;;31240532;28;20419;-73
2021/10/26 18:40:23;;;;;;;0.10;0.10;;;13.70;83.80;12.90;102074.00;;;;31242241;28;20060;-73
2021/10/26 18:55:24;;;;;;;0.20;0.20;;;13.70;83.20;12.90;102070.00;;;;31260274;28;20153;-72
2021/10/26 19:10:25;;;;;;;0.20;0.20;;;13.70;84.50;12.80;102056.00;;;;31263218;28;20116;-72
2021/10/26 19:25:27;;;;;;;0.15;0.15;;;13.60;84.50;12.70;102066.00;;;;31264103;28;20583;-73
2021/10/26 19:40:28;;;;;;;0.10;0.10;;;13.50;85.20;12.70;102064.00;;;;31245870;28;20049;-75
2021/10/26 19:55:29;;;;;;;0.10;0.10;;;11.70;83.60;12.70;102077.00;;;;31253123;28;20160;-73
2021/10/26 20:10:31;;;;;;;0.50;0.50;;;13.50;86.00;12.70;102079.00;;;;31248794;28;20049;-74
2021/10/26 20:25:36;;;;;;;0.10;0.10;;;13.40;85.50;12.60;102089.00;;;;31263567;28;20082;-73
2021/10/26 20:40:37;;;;;;;0.10;0.10;;;13.50;87.30;12.60;102095.00;;;;31258248;28;20052;-74
2021/10/26 20:55:38;;;;;;;0.25;0.25;;;13.40;87.10;12.60;102102.00;;;;31253020;28;20443;-73
2021/10/26 21:10:40;;;;;;;0.30;0.30;;;13.50;88.70;12.60;102104.00;;;;31247560;28;20063;-72
2021/10/26 21:25:41;;;;;;;0.10;0.10;;;13.50;89.20;12.70;102127.00;;;;31244579;28;20046;-71
2021/10/26 21:40:49;;;;;;;0.10;0.10;;;13.50;90.10;12.70;102109.00;;;;31256908;28;20037;-72
2021/10/26 21:55:50;;;;;;;1.63;1.52;;;13.50;89.60;12.70;102107.00;;;;31237879;28;20048;-73
2021/10/26 22:10:51;;;;;;;0.17;0.17;;;13.50;90.40;12.70;102104.00;;;;31243147;28;20060;-73
2021/10/26 22:25:53;;;;;;;0.10;0.10;;;13.60;90.80;12.80;102107.00;;;;31243953;28;20037;-72
2021/10/26 22:40:55;;;;;;;0.38;0.38;;;13.70;90.60;12.80;102119.00;;;;31252354;28;20033;-72
2021/10/26 22:55:57;;;;;;;;;;;13.60;90.90;12.80;102128.00;;;;31227866;28;20065;-73
2021/10/26 23:11:04;;;;;;;0.20;0.20;;;13.60;91.00;12.80;102122.00;;;;31239560;28;19924;-72
2021/10/26 23:26:06;;;;;;;0.13;0.13;;;14.00;91.20;12.90;102121.00;;;;31238314;28;20095;-72
2021/10/26 23:41:07;;;;;;;0.10;0.10;;;13.50;91.20;12.90;102130.00;;;;31268536;28;20051;-72
2021/10/26 23:56:09;;;;;;;0.10;0.10;;;13.80;91.70;13.00;102108.00;;;;31250757;28;20538;-73
